createdAt,value
2019-04-20T00:01:07.355Z,9.90
2019-04-20T00:03:38.013Z,11.43
2019-04-20T00:06:03.540Z,10.00
2019-04-20T00:08:34.516Z,11.45
2019-04-20T00:11:07.339Z,12.80
2019-04-20T00:13:35.746Z,9.65
2019-04-20T00:15:57.743Z,14.98
2019-04-20T00:18:32.391Z,13.30
2019-04-20T00:21:03.852Z,11.83
2019-04-20T00:23:43.847Z,12.45
2019-04-20T00:26:56.192Z,11.97
2019-04-20T00:29:16.050Z,12.95
2019-04-20T00:31:41.998Z,14.07
2019-04-20T00:34:06.148Z,12.78
2019-04-20T00:36:41.499Z,14.38
2019-04-20T00:39:11.412Z,14.07
2019-04-20T00:41:44.128Z,9.70
2019-04-20T00:44:13.376Z,15.48
2019-04-20T00:46:46.907Z,12.40
2019-04-20T00:49:24.280Z,14.23
2019-04-20T00:51:52.540Z,9.50
2019-04-20T00:54:02.559Z,10.10
2019-04-20T00:56:30.962Z,9.53
2019-04-20T00:59:09.140Z,12.03
2019-04-20T01:01:50.224Z,13.00
2019-04-20T01:04:15.214Z,12.85
2019-04-20T01:07:08.976Z,11.57
2019-04-20T01:09:46.276Z,11.43
2019-04-20T01:12:18.178Z,14.50
2019-04-20T01:14:48.704Z,13.43
2019-04-20T01:17:12.100Z,12.20
2019-04-20T01:19:39.390Z,12.45
2019-04-20T01:22:11.003Z,11.88
2019-04-20T01:24:39.441Z,15.50
2019-04-20T01:27:05.651Z,13.18
2019-04-20T01:29:39.372Z,15.15
2019-04-20T01:32:10.580Z,12.82
2019-04-20T01:34:42.729Z,10.63
2019-04-20T01:37:13.120Z,14.45
2019-04-20T01:39:35.483Z,12.68
2019-04-20T01:41:56.111Z,13.25
2019-04-20T01:44:27.055Z,13.20
2019-04-20T01:46:57.045Z,14.60
2019-04-20T01:49:22.739Z,15.30
2019-04-20T01:51:57.495Z,15.05
2019-04-20T01:54:31.120Z,11.40
2019-04-20T01:57:01.687Z,14.85
2019-04-20T01:59:39.954Z,11.88
2019-04-20T02:02:11.568Z,11.88
2019-04-20T02:05:04.431Z,14.80
2019-04-20T02:07:34.617Z,13.20
2019-04-20T02:09:59.812Z,13.48
2019-04-20T02:12:28.354Z,17.60
2019-04-20T02:14:57.041Z,10.68
2019-04-20T02:17:29.826Z,12.95
2019-04-20T02:20:12.642Z,14.63
2019-04-20T02:22:38.341Z,14.50
2019-04-20T02:24:46.842Z,12.05
2019-04-20T02:27:14.730Z,16.07
2019-04-20T02:30:07.679Z,14.80
2019-04-20T02:32:36.548Z,16.02
2019-04-20T02:35:30.222Z,14.85
2019-04-20T02:40:39.712Z,12.82
2019-04-20T02:48:08.187Z,13.50
2019-04-20T02:50:34.222Z,15.65
2019-04-20T02:53:11.454Z,18.82
2019-04-20T02:55:24.818Z,13.22
2019-04-20T03:02:51.969Z,15.45
2019-04-20T03:05:22.961Z,16.25
2019-04-20T03:07:59.360Z,13.20
2019-04-20T03:10:36.573Z,18.42
2019-04-20T03:12:55.029Z,16.87
2019-04-20T03:15:31.401Z,15.13
2019-04-20T03:17:59.173Z,17.00
2019-04-20T03:20:23.259Z,15.30
2019-04-20T03:23:11.699Z,15.40
2019-04-20T03:25:45.265Z,12.70
2019-04-20T03:28:10.381Z,17.50
2019-04-20T03:33:58.387Z,20.55
2019-04-20T03:36:14.658Z,13.85
2019-04-20T03:38:47.893Z,12.58
2019-04-20T03:41:26.395Z,16.37
2019-04-20T03:43:47.639Z,14.18
2019-04-20T03:46:19.179Z,14.75
2019-04-20T03:49:01.351Z,16.15
2019-04-20T03:51:33.359Z,14.28
2019-04-20T03:54:13.595Z,13.68
2019-04-20T03:57:06.613Z,12.40
2019-04-20T04:00:03.384Z,13.55
2019-04-20T04:05:28.471Z,15.15
2019-04-20T04:07:47.015Z,17.45
2019-04-20T04:10:27.307Z,16.12
2019-04-20T04:13:05.517Z,15.08
2019-04-20T04:15:36.138Z,18.30
2019-04-20T04:18:10.264Z,13.75
2019-04-20T04:20:38.657Z,14.85
2019-04-20T04:23:14.980Z,15.28
2019-04-20T04:25:39.849Z,13.03
2019-04-20T04:28:12.905Z,16.97
2019-04-20T04:30:40.310Z,17.23
2019-04-20T04:35:34.892Z,18.77
2019-04-20T04:38:05.809Z,18.65
2019-04-20T04:41:11.203Z,17.85
2019-04-20T04:43:28.504Z,16.52
2019-04-20T04:45:38.595Z,17.67
2019-04-20T04:48:13.093Z,20.08
2019-04-20T04:50:44.568Z,16.15
2019-04-20T04:53:11.198Z,13.68
2019-04-20T04:55:42.936Z,14.70
2019-04-20T04:58:00.492Z,15.80
2019-04-20T05:00:31.095Z,14.47
2019-04-20T05:03:02.009Z,11.68
2019-04-20T05:05:58.886Z,12.50
2019-04-20T05:08:18.066Z,13.25
2019-04-20T05:10:37.022Z,13.25
2019-04-20T05:13:04.987Z,14.30
2019-04-20T05:15:46.122Z,16.65
2019-04-20T05:18:21.853Z,14.53
2019-04-20T05:20:54.661Z,15.32
2019-04-20T05:23:31.977Z,16.52
2019-04-20T05:26:16.898Z,12.45
2019-04-20T05:28:33.568Z,14.90
2019-04-20T05:30:59.490Z,12.95
2019-04-20T05:33:36.519Z,19.70
2019-04-20T05:36:11.765Z,13.38
2019-04-20T05:38:42.050Z,15.78
2019-04-20T05:41:10.003Z,15.25
2019-04-20T05:46:16.927Z,15.23
2019-04-20T05:48:45.700Z,16.67
2019-04-20T05:51:13.452Z,13.72
2019-04-20T05:53:44.386Z,13.05
2019-04-20T05:56:09.138Z,14.15
2019-04-20T05:58:38.780Z,16.75
2019-04-20T06:01:08.857Z,12.15
2019-04-20T06:03:37.155Z,16.05
2019-04-20T06:06:23.535Z,13.50
2019-04-20T06:08:51.214Z,12.85
2019-04-20T06:11:03.859Z,18.70
2019-04-20T06:13:47.048Z,15.05
2019-04-20T06:16:31.074Z,15.70
2019-04-20T06:19:13.052Z,13.90
2019-04-20T06:21:54.326Z,15.18
2019-04-20T06:24:24.945Z,13.28
2019-04-20T06:26:49.250Z,15.20
2019-04-20T06:28:58.229Z,14.90
2019-04-20T06:31:36.102Z,14.78
2019-04-20T06:44:31.748Z,15.30
2019-04-20T06:47:04.180Z,15.60
2019-04-20T06:55:05.467Z,15.55
2019-04-20T06:57:50.212Z,15.85
2019-04-20T07:00:10.342Z,17.32
2019-04-20T07:02:39.661Z,16.75
2019-04-20T07:05:05.334Z,15.72
2019-04-20T07:07:33.984Z,12.70
2019-04-20T07:10:08.875Z,16.17
2019-04-20T07:12:27.222Z,16.95
2019-04-20T07:14:49.009Z,10.35
2019-04-20T07:17:59.731Z,12.82
2019-04-20T07:20:42.765Z,10.80
2019-04-20T07:23:18.668Z,10.70
2019-04-20T07:25:38.163Z,11.03
2019-04-20T07:28:09.571Z,14.23
2019-04-20T07:30:32.480Z,10.70
2019-04-20T07:33:01.915Z,9.25
2019-04-20T07:35:31.883Z,9.15
2019-04-20T07:38:25.586Z,11.93
2019-04-20T07:40:25.797Z,11.35
2019-04-20T07:42:55.247Z,9.60
2019-04-20T07:47:52.696Z,13.22
2019-04-20T07:50:20.092Z,11.93
2019-04-20T07:52:39.664Z,10.13
2019-04-20T07:55:33.365Z,11.45
2019-04-20T07:57:42.896Z,12.75
2019-04-20T08:00:16.324Z,10.40
2019-04-20T08:03:12.951Z,13.95
2019-04-20T08:05:33.545Z,11.08
2019-04-20T08:08:02.602Z,10.32
2019-04-20T08:10:34.172Z,11.70
2019-04-20T08:13:14.262Z,10.25
2019-04-20T08:15:43.232Z,11.30
2019-04-20T08:18:02.750Z,11.13
2019-04-20T08:20:32.813Z,10.80
2019-04-20T08:22:58.850Z,10.20
2019-04-20T08:25:26.931Z,12.28
2019-04-20T08:27:59.136Z,13.28
2019-04-20T08:30:56.072Z,12.93
2019-04-20T08:33:24.462Z,10.48
2019-04-20T08:36:02.845Z,11.28
2019-04-20T08:40:54.956Z,14.85
2019-04-20T08:43:40.665Z,13.53
2019-04-20T08:45:57.098Z,12.80
2019-04-20T08:48:23.412Z,10.78
2019-04-20T08:50:50.489Z,10.77
2019-04-20T08:53:20.698Z,11.80
2019-04-20T08:55:42.554Z,15.13
2019-04-20T08:57:54.386Z,11.08
2019-04-20T09:00:29.745Z,11.10
2019-04-20T09:02:57.868Z,13.90
2019-04-20T09:05:30.418Z,10.07
2019-04-20T09:08:00.106Z,12.93
2019-04-20T09:10:40.754Z,11.60
2019-04-20T09:13:01.513Z,10.75
2019-04-20T09:15:16.867Z,11.63
2019-04-20T09:17:54.062Z,11.22
2019-04-20T09:20:29.477Z,12.33
2019-04-20T09:23:13.476Z,11.48
2019-04-20T09:28:23.813Z,11.45
2019-04-20T09:30:53.176Z,13.90
2019-04-20T09:33:47.017Z,11.15
2019-04-20T09:36:18.005Z,13.10
2019-04-20T09:39:21.087Z,10.58
2019-04-20T09:44:33.662Z,10.53
2019-04-20T09:46:58.299Z,12.68
2019-04-20T09:49:39.423Z,9.93
2019-04-20T09:52:06.850Z,10.65
2019-04-20T09:54:37.032Z,10.40
2019-04-20T09:57:10.064Z,10.82
2019-04-20T09:59:37.183Z,14.77
2019-04-20T10:01:55.538Z,10.80
2019-04-20T10:04:17.418Z,10.33
2019-04-20T10:06:45.573Z,11.33
2019-04-20T10:09:13.675Z,10.32
2019-04-20T10:11:43.418Z,13.70
2019-04-20T10:14:10.414Z,9.95
2019-04-20T10:16:39.714Z,9.85
2019-04-20T10:21:35.993Z,10.72
2019-04-20T10:24:02.937Z,11.83
2019-04-20T10:26:30.296Z,11.15
2019-04-20T10:28:57.480Z,10.50
2019-04-20T10:31:24.571Z,11.50
2019-04-20T10:33:51.489Z,9.30
2019-04-20T10:36:29.834Z,10.10
2019-04-20T10:38:58.154Z,9.65
2019-04-20T10:41:37.024Z,12.33
2019-04-20T10:43:53.881Z,11.27
2019-04-20T10:46:20.799Z,11.60
2019-04-20T10:48:50.793Z,10.28
2019-04-20T10:51:17.646Z,9.63
2019-04-20T10:53:44.641Z,9.70
2019-04-20T10:56:11.725Z,14.35
2019-04-20T10:58:40.020Z,8.78
2019-04-20T11:01:07.397Z,11.43
2019-04-20T11:03:34.627Z,10.18
2019-04-20T11:06:02.737Z,9.23
2019-04-20T11:08:30.664Z,10.35
2019-04-20T11:11:08.310Z,9.63
2019-04-20T11:13:27.603Z,9.30
2019-04-20T11:15:54.784Z,9.45
2019-04-20T11:18:21.791Z,9.05
2019-04-20T11:20:49.151Z,10.45
2019-04-20T11:23:16.202Z,11.38
2019-04-20T11:25:43.877Z,10.75
2019-04-20T11:28:12.261Z,11.50
2019-04-20T11:30:40.408Z,10.38
2019-04-20T11:33:07.213Z,10.63
2019-04-20T11:35:37.646Z,11.83
2019-04-20T11:38:02.987Z,11.18
2019-04-20T11:40:31.384Z,9.50
2019-04-20T11:42:58.093Z,9.28
2019-04-20T11:45:24.869Z,11.88
2019-04-20T11:47:51.677Z,10.75
2019-04-20T11:50:19.820Z,9.95
2019-04-20T11:52:49.237Z,10.60
2019-04-20T11:55:16.050Z,9.73
2019-04-20T11:57:43.210Z,9.45
2019-04-20T12:00:13.195Z,13.10
2019-04-20T12:03:00.301Z,10.13
2019-04-20T12:05:36.930Z,11.88
2019-04-20T12:08:00.822Z,13.50
2019-04-20T12:10:28.350Z,11.50
2019-04-20T12:12:57.551Z,10.72
2019-04-20T12:15:24.546Z,12.00
2019-04-20T12:17:51.540Z,12.05
2019-04-20T12:20:18.638Z,10.70
2019-04-20T12:22:46.244Z,11.53
2019-04-20T12:25:14.245Z,10.43
2019-04-20T12:27:47.630Z,10.05
2019-04-20T12:30:12.083Z,10.40
2019-04-20T12:32:42.938Z,9.13
2019-04-20T12:35:08.657Z,10.85
2019-04-20T12:37:36.819Z,9.95
2019-04-20T12:40:05.037Z,11.65
2019-04-20T12:42:32.937Z,10.70
2019-04-20T12:44:59.739Z,10.53
2019-04-20T12:47:27.677Z,10.15
2019-04-20T12:49:55.817Z,8.83
2019-04-20T12:52:22.818Z,10.68
2019-04-20T12:54:50.441Z,9.50
2019-04-20T12:57:18.485Z,9.10
2019-04-20T12:59:47.240Z,11.68
2019-04-20T13:02:15.407Z,8.90
2019-04-20T13:04:43.543Z,10.45
2019-04-20T13:07:12.157Z,10.68
2019-04-20T13:09:48.580Z,8.88
2019-04-20T13:12:23.599Z,10.63
2019-04-20T13:15:18.305Z,9.88
2019-04-20T13:17:46.488Z,9.48
2019-04-20T13:20:36.221Z,16.93
2019-04-20T13:23:04.440Z,11.97
2019-04-20T13:25:32.891Z,9.20
2019-04-20T13:28:00.936Z,12.10
2019-04-20T13:30:28.055Z,10.50
2019-04-20T13:32:57.124Z,10.72
2019-04-20T13:35:23.537Z,10.17
2019-04-20T13:37:50.328Z,13.58
2019-04-20T13:40:17.668Z,14.43
2019-04-20T13:42:45.617Z,13.60
2019-04-20T13:45:13.007Z,21.42
2019-04-20T13:47:40.857Z,12.45
2019-04-20T13:50:09.344Z,12.53
2019-04-20T13:52:36.467Z,11.43
2019-04-20T13:55:03.624Z,10.32
2019-04-20T13:57:37.997Z,10.88
2019-04-20T14:00:26.195Z,12.88
2019-04-20T14:03:00.631Z,11.08
2019-04-20T14:05:48.926Z,14.10
2019-04-20T14:08:21.166Z,11.20
2019-04-20T14:10:49.196Z,12.65
2019-04-20T14:13:19.208Z,14.95
2019-04-20T14:16:07.264Z,10.20
2019-04-20T14:18:35.368Z,11.90
2019-04-20T14:21:02.448Z,10.55
2019-04-20T14:23:30.824Z,13.85
2019-04-20T14:25:58.766Z,12.23
2019-04-20T14:28:25.539Z,10.43
2019-04-20T14:30:54.063Z,9.90
2019-04-20T14:33:21.034Z,13.45
2019-04-20T14:35:48.386Z,10.03
2019-04-20T14:38:15.443Z,12.53
2019-04-20T14:40:42.320Z,9.18
2019-04-20T14:43:09.013Z,12.95
2019-04-20T14:45:36.618Z,10.20
2019-04-20T14:48:03.788Z,10.53
2019-04-20T14:50:31.726Z,9.58
2019-04-20T14:52:59.774Z,9.88
2019-04-20T14:55:26.755Z,9.43
2019-04-20T14:57:55.472Z,10.18
2019-04-20T15:00:41.664Z,12.53
2019-04-20T15:03:26.675Z,13.22
2019-04-20T15:05:57.735Z,9.90
2019-04-20T15:08:24.891Z,11.38
2019-04-20T15:10:52.153Z,11.00
2019-04-20T15:13:20.400Z,10.48
2019-04-20T15:15:48.510Z,9.88
2019-04-20T15:18:15.768Z,10.08
2019-04-20T15:20:46.036Z,8.83
2019-04-20T15:23:17.431Z,10.40
2019-04-20T15:25:44.547Z,9.20
2019-04-20T15:28:12.316Z,11.80
2019-04-20T15:30:40.362Z,9.18
2019-04-20T15:33:07.349Z,9.53
2019-04-20T15:35:34.708Z,9.60
2019-04-20T15:38:02.816Z,9.53
2019-04-20T15:40:31.033Z,10.28
2019-04-20T15:43:05.961Z,8.58
2019-04-20T15:45:27.360Z,11.75
2019-04-20T15:47:54.266Z,8.95
2019-04-20T15:50:22.189Z,7.85
2019-04-20T15:52:52.691Z,8.38
2019-04-20T15:55:24.868Z,11.30
2019-04-20T15:57:46.545Z,9.20
2019-04-20T16:00:14.260Z,8.43
2019-04-20T16:02:49.415Z,13.48
2019-04-20T16:05:37.572Z,8.80
2019-04-20T16:08:42.385Z,8.28
2019-04-20T16:11:11.281Z,9.45
2019-04-20T16:13:43.654Z,10.18
2019-04-20T16:16:07.888Z,9.50
2019-04-20T16:18:35.072Z,9.00
2019-04-20T16:21:07.948Z,8.83
2019-04-20T16:23:40.803Z,10.20
2019-04-20T16:26:17.855Z,9.83
2019-04-20T16:28:45.873Z,8.68
2019-04-20T16:31:15.270Z,12.33
2019-04-20T16:33:42.253Z,8.38
2019-04-20T16:36:10.298Z,9.33
2019-04-20T16:38:37.328Z,15.00
2019-04-20T16:41:04.312Z,7.30
2019-04-20T16:43:37.380Z,9.40
2019-04-20T16:46:23.492Z,7.90
2019-04-20T16:48:48.428Z,9.65
2019-04-20T16:51:16.630Z,8.48
2019-04-20T16:53:43.733Z,11.03
2019-04-20T16:56:10.743Z,7.08
2019-04-20T16:58:37.880Z,11.25
2019-04-20T17:01:05.719Z,8.55
2019-04-20T17:03:48.875Z,11.48
2019-04-20T17:06:02.300Z,8.08
2019-04-20T17:08:29.242Z,7.50
2019-04-20T17:10:56.221Z,7.03
2019-04-20T17:13:34.072Z,7.22
2019-04-20T17:15:51.965Z,7.30
2019-04-20T17:18:19.306Z,6.15
2019-04-20T17:20:46.483Z,6.28
2019-04-20T17:23:13.628Z,8.25
2019-04-20T17:25:40.715Z,6.78
2019-04-20T17:28:40.652Z,7.05
2019-04-20T17:34:25.034Z,6.33
2019-04-20T17:36:38.408Z,5.75
2019-04-20T17:39:11.443Z,8.28
2019-04-20T17:41:54.593Z,6.42
2019-04-20T17:44:23.795Z,7.47
2019-04-20T17:46:41.325Z,8.53
2019-04-20T17:49:16.966Z,6.47
2019-04-20T17:51:55.544Z,6.83
2019-04-20T17:54:17.610Z,6.80
2019-04-20T17:56:44.724Z,6.47
2019-04-20T17:59:12.454Z,10.25
2019-04-20T18:02:13.148Z,9.73
2019-04-20T18:05:09.908Z,12.33
2019-04-20T18:07:36.628Z,14.45
2019-04-20T18:10:03.178Z,18.67
2019-04-20T18:12:18.804Z,37.28
2019-04-20T18:14:57.381Z,51.90
2019-04-20T18:17:54.672Z,63.20
2019-04-20T18:20:23.064Z,41.48
2019-04-20T18:22:55.224Z,34.78
2019-04-20T18:25:49.946Z,25.20
2019-04-20T18:28:04.136Z,15.83
2019-04-20T18:30:40.725Z,22.37
2019-04-20T18:32:55.927Z,24.05
2019-04-20T18:35:24.535Z,16.48
2019-04-20T18:37:59.295Z,11.03
2019-04-20T18:40:31.018Z,7.67
2019-04-20T18:42:55.869Z,9.20
2019-04-20T18:45:38.164Z,9.20
2019-04-20T18:48:05.952Z,13.03
2019-04-20T18:50:22.464Z,7.22
2019-04-20T18:52:45.415Z,7.70
2019-04-20T18:55:23.284Z,6.78
2019-04-20T18:57:43.439Z,10.10
2019-04-20T19:00:19.157Z,10.58
2019-04-20T19:02:47.503Z,11.33
2019-04-20T19:05:11.619Z,10.15
2019-04-20T19:07:41.468Z,14.50
2019-04-20T19:10:16.682Z,11.38
2019-04-20T19:12:47.246Z,11.43
2019-04-20T19:15:48.109Z,12.85
2019-04-20T19:18:11.633Z,12.28
2019-04-20T19:20:34.740Z,14.07
2019-04-20T19:23:02.203Z,9.80
2019-04-20T19:25:34.557Z,11.63
2019-04-20T19:28:00.099Z,8.55
2019-04-20T19:30:35.303Z,11.80
2019-04-20T19:33:16.260Z,8.68
2019-04-20T19:35:33.924Z,11.38
2019-04-20T19:38:19.034Z,11.80
2019-04-20T19:40:51.260Z,11.00
2019-04-20T19:43:22.090Z,16.67
2019-04-20T19:46:08.537Z,13.75
2019-04-20T19:48:22.411Z,14.95
2019-04-20T19:50:58.916Z,15.88
2019-04-20T19:53:26.582Z,15.25
2019-04-20T19:56:07.723Z,16.93
2019-04-20T19:58:32.275Z,13.58
2019-04-20T20:00:53.788Z,13.72
2019-04-20T20:03:21.603Z,15.03
2019-04-20T20:05:51.889Z,17.57
2019-04-20T20:08:23.053Z,19.37
2019-04-20T20:10:46.150Z,24.90
2019-04-20T20:13:13.240Z,18.70
2019-04-20T20:15:41.757Z,16.67
2019-04-20T20:18:23.177Z,14.05
2019-04-20T20:20:55.501Z,14.38
2019-04-20T20:23:07.896Z,13.83
2019-04-20T20:25:39.175Z,15.80
2019-04-20T20:28:16.987Z,14.90
2019-04-20T20:30:42.177Z,16.32
2019-04-20T20:33:18.882Z,18.12
2019-04-20T20:35:41.303Z,20.90
2019-04-20T20:38:01.094Z,13.75
2019-04-20T20:40:32.849Z,16.93
2019-04-20T20:43:07.277Z,17.10
2019-04-20T20:45:34.975Z,13.25
2019-04-20T20:48:13.470Z,8.85
2019-04-20T20:50:45.372Z,11.97
2019-04-20T20:53:02.254Z,10.63
2019-04-20T20:55:29.636Z,9.10
2019-04-20T20:57:59.246Z,11.88
2019-04-20T21:00:28.432Z,8.80
2019-04-20T21:02:56.211Z,8.70
2019-04-20T21:05:15.583Z,8.03
2019-04-20T21:07:42.760Z,7.62
2019-04-20T21:10:39.773Z,6.62
2019-04-20T21:13:03.443Z,5.83
2019-04-20T21:15:29.899Z,13.38
2019-04-20T21:18:20.778Z,6.65
2019-04-20T21:20:45.181Z,6.28
2019-04-20T21:23:07.181Z,7.37
2019-04-20T21:25:37.283Z,5.97
2019-04-20T21:27:57.054Z,7.03
2019-04-20T21:30:32.483Z,8.35
2019-04-20T21:32:57.279Z,5.55
2019-04-20T21:35:21.834Z,9.73
2019-04-20T21:37:58.272Z,8.68
2019-04-20T21:40:41.376Z,10.08
2019-04-20T21:43:08.816Z,9.55
2019-04-20T21:45:37.201Z,8.10
2019-04-20T21:48:12.728Z,8.13
2019-04-20T21:50:53.481Z,9.23
2019-04-20T21:53:08.690Z,12.85
2019-04-20T21:55:30.026Z,17.35
2019-04-20T21:58:00.427Z,10.80
2019-04-20T22:00:42.578Z,10.15
2019-04-20T22:03:09.862Z,12.70
2019-04-20T22:05:54.446Z,8.53
2019-04-20T22:08:22.222Z,7.37
2019-04-20T22:10:50.277Z,9.08
2019-04-20T22:13:40.228Z,14.33
2019-04-20T22:16:10.315Z,11.45
2019-04-20T22:18:46.352Z,7.75
2019-04-20T22:21:13.104Z,7.47
2019-04-20T22:24:03.213Z,10.85
2019-04-20T22:26:27.668Z,8.45
2019-04-20T22:28:50.021Z,10.35
2019-04-20T22:31:18.325Z,7.17
2019-04-20T22:33:46.831Z,8.73
2019-04-20T22:36:38.550Z,6.75
2019-04-20T22:39:34.644Z,8.95
2019-04-20T22:42:02.405Z,9.23
2019-04-20T22:44:28.383Z,9.38
2019-04-20T22:46:54.312Z,7.72
2019-04-20T22:49:42.029Z,9.13
2019-04-20T22:52:00.668Z,10.63
2019-04-20T22:54:36.331Z,10.65
2019-04-20T22:57:02.310Z,11.83
2019-04-20T22:59:22.594Z,7.30
2019-04-20T23:01:52.114Z,7.90
2019-04-20T23:04:15.040Z,9.58
2019-04-20T23:06:46.290Z,8.53
2019-04-20T23:09:13.279Z,11.03
2019-04-20T23:11:40.455Z,10.55
2019-04-20T23:14:08.690Z,11.35
2019-04-20T23:16:43.211Z,14.15
2019-04-20T23:19:04.519Z,8.90
2019-04-20T23:21:32.137Z,10.78
2019-04-20T23:24:03.822Z,9.25
2019-04-20T23:26:48.912Z,14.63
2019-04-20T23:29:15.780Z,9.70
2019-04-20T23:31:48.924Z,9.20
2019-04-20T23:34:16.565Z,9.85
2019-04-20T23:36:43.842Z,8.40
2019-04-20T23:39:08.718Z,10.05
2019-04-20T23:41:35.791Z,11.48
2019-04-20T23:44:25.189Z,8.08
2019-04-20T23:47:09.733Z,9.10
2019-04-20T23:49:53.808Z,14.47
2019-04-20T23:52:26.935Z,13.60
2019-04-20T23:54:35.074Z,9.28
2019-04-20T23:59:47.004Z,11.85
